sensor_id;sensor_type;location;lat;lon;timestamp;pressure;altitude;pressure_sealevel;temperature;humidity
72560;BME280;62987;52.382;9.752;2023-04-01T13:14:29;99246.66;;;13.22;81.79
72560;BME280;62987;52.382;9.752;2023-04-01T13:17:07;99244.28;;;12.58;80.41
72560;BME280;62987;52.382;9.752;2023-04-01T13:19:41;99246.78;;;12.49;82.58
72560;BME280;62987;52.382;9.752;2023-04-01T13:22:38;99267.91;;;12.39;82.30
72560;BME280;62987;52.382;9.752;2023-04-01T13:25:15;99272.34;;;12.51;83.63
72560;BME280;62987;52.382;9.752;2023-04-01T13:27:53;99274.38;;;12.24;83.24
72560;BME280;62987;52.382;9.752;2023-04-01T13:30:29;99273.97;;;12.17;82.78
72560;BME280;62987;52.382;9.752;2023-04-01T13:33:03;99277.97;;;12.35;87.89
72560;BME280;62987;52.382;9.752;2023-04-01T13:35:43;99278.47;;;12.04;87.94
72560;BME280;62987;52.382;9.752;2023-04-01T13:38:31;99281.25;;;11.90;90.61
72560;BME280;62987;52.382;9.752;2023-04-01T13:41:14;99280.19;;;11.92;90.74
72560;BME280;62987;52.382;9.752;2023-04-01T13:43:49;99275.47;;;12.09;92.36
72560;BME280;62987;52.382;9.752;2023-04-01T13:46:42;99294.53;;;12.15;93.10
72560;BME280;62987;52.382;9.752;2023-04-01T13:49:30;99297.41;;;12.12;94.62
72560;BME280;62987;52.382;9.752;2023-04-01T13:52:30;99308.13;;;11.47;100.00
72560;BME280;62987;52.382;9.752;2023-04-01T13:55:16;99251.69;;;10.77;100.00
72560;BME280;62987;52.382;9.752;2023-04-01T14:01:00;99314.16;;;10.43;100.00
72560;BME280;62987;52.382;9.752;2023-04-01T14:03:41;99333.38;;;10.34;100.00
72560;BME280;62987;52.382;9.752;2023-04-01T14:06:18;99338.09;;;10.15;100.00
72560;BME280;62987;52.382;9.752;2023-04-01T14:09:08;99347.31;;;9.95;100.00
72560;BME280;62987;52.382;9.752;2023-04-01T14:11:45;99318.28;;;9.78;100.00
72560;BME280;62987;52.382;9.752;2023-04-01T14:14:24;99345.75;;;9.63;100.00
72560;BME280;62987;52.382;9.752;2023-04-01T14:17:16;99354.47;;;9.79;100.00
72560;BME280;62987;52.382;9.752;2023-04-01T14:20:06;99338.16;;;9.57;100.00
72560;BME280;62987;52.382;9.752;2023-04-01T14:22:56;99365.63;;;9.56;100.00
72560;BME280;62987;52.382;9.752;2023-04-01T14:25:47;99372.25;;;9.49;100.00
72560;BME280;62987;52.382;9.752;2023-04-01T14:28:28;99335.91;;;9.05;100.00
72560;BME280;62987;52.382;9.752;2023-04-01T14:31:19;99384.72;;;9.33;100.00
72560;BME280;62987;52.382;9.752;2023-04-01T14:34:00;99379.94;;;9.23;100.00
72560;BME280;62987;52.382;9.752;2023-04-01T14:36:47;99382.88;;;9.19;100.00
72560;BME280;62987;52.382;9.752;2023-04-01T14:39:35;99386.38;;;9.04;100.00
72560;BME280;62987;52.382;9.752;2023-04-01T14:42:23;99395.97;;;9.06;100.00
72560;BME280;62987;52.382;9.752;2023-04-01T14:48:08;99411.22;;;8.87;100.00
72560;BME280;62987;52.382;9.752;2023-04-01T14:50:44;99410.94;;;8.92;100.00
72560;BME280;62987;52.382;9.752;2023-04-01T14:53:26;99412.59;;;8.94;100.00
72560;BME280;62987;52.382;9.752;2023-04-01T14:55:56;99432.66;;;8.82;100.00
72560;BME280;62987;52.382;9.752;2023-04-01T14:58:41;99424.09;;;8.77;100.00
72560;BME280;62987;52.382;9.752;2023-04-01T15:01:19;99424.97;;;8.78;100.00
72560;BME280;62987;52.382;9.752;2023-04-01T15:03:56;99424.78;;;8.65;100.00
72560;BME280;62987;52.382;9.752;2023-04-01T15:06:38;99433.53;;;8.67;100.00
72560;BME280;62987;52.382;9.752;2023-04-01T15:09:17;99445.03;;;8.51;100.00
72560;BME280;62987;52.382;9.752;2023-04-01T15:12:00;99447.13;;;8.44;100.00
72560;BME280;62987;52.382;9.752;2023-04-01T15:14:41;99459.84;;;8.37;100.00
72560;BME280;62987;52.382;9.752;2023-04-01T15:17:23;99458.06;;;8.38;100.00
72560;BME280;62987;52.382;9.752;2023-04-01T15:20:15;99468.28;;;8.28;100.00
72560;BME280;62987;52.382;9.752;2023-04-01T15:23:11;99481.19;;;8.17;100.00
72560;BME280;62987;52.382;9.752;2023-04-01T15:25:57;99485.88;;;8.12;100.00
72560;BME280;62987;52.382;9.752;2023-04-01T15:28:31;99494.22;;;8.04;100.00
72560;BME280;62987;52.382;9.752;2023-04-01T15:31:09;99499.81;;;7.98;100.00
72560;BME280;62987;52.382;9.752;2023-04-01T15:33:47;99480.06;;;7.88;100.00
72560;BME280;62987;52.382;9.752;2023-04-01T15:36:27;99497.50;;;7.92;100.00
72560;BME280;62987;52.382;9.752;2023-04-01T15:39:02;99521.13;;;7.97;100.00
72560;BME280;62987;52.382;9.752;2023-04-01T15:41:44;99526.69;;;7.91;100.00
72560;BME280;62987;52.382;9.752;2023-04-01T15:44:42;99526.63;;;7.92;100.00
72560;BME280;62987;52.382;9.752;2023-04-01T15:47:35;99537.03;;;7.78;100.00
72560;BME280;62987;52.382;9.752;2023-04-01T15:50:26;99543.03;;;7.82;100.00
72560;BME280;62987;52.382;9.752;2023-04-01T15:53:00;99543.78;;;7.67;100.00
72560;BME280;62987;52.382;9.752;2023-04-01T15:55:36;99550.47;;;7.56;100.00
72560;BME280;62987;52.382;9.752;2023-04-01T15:58:22;99553.78;;;7.43;100.00
72560;BME280;62987;52.382;9.752;2023-04-01T16:01:04;99560.22;;;7.37;100.00
72560;BME280;62987;52.382;9.752;2023-04-01T16:03:40;99566.38;;;7.38;100.00
72560;BME280;62987;52.382;9.752;2023-04-01T16:06:30;99567.78;;;7.81;100.00
72560;BME280;62987;52.382;9.752;2023-04-01T16:09:13;99587.53;;;7.74;100.00
72560;BME280;62987;52.382;9.752;2023-04-01T16:11:50;99574.72;;;7.47;100.00
72560;BME280;62987;52.382;9.752;2023-04-01T16:14:36;99585.28;;;7.47;100.00
72560;BME280;62987;52.382;9.752;2023-04-01T16:17:25;99586.88;;;7.51;100.00
72560;BME280;62987;52.382;9.752;2023-04-01T16:20:00;99581.78;;;7.28;100.00
72560;BME280;62987;52.382;9.752;2023-04-01T16:22:32;99599.59;;;7.43;100.00
72560;BME280;62987;52.382;9.752;2023-04-01T16:25:17;99593.59;;;7.40;100.00
72560;BME280;62987;52.382;9.752;2023-04-01T16:27:50;99553.50;;;6.93;100.00
72560;BME280;62987;52.382;9.752;2023-04-01T16:30:36;99606.78;;;7.02;100.00
72560;BME280;62987;52.382;9.752;2023-04-01T16:33:11;99621.16;;;6.97;100.00
72560;BME280;62987;52.382;9.752;2023-04-01T16:35:43;99624.78;;;6.94;100.00
72560;BME280;62987;52.382;9.752;2023-04-01T16:38:19;99632.31;;;7.03;100.00
72560;BME280;62987;52.382;9.752;2023-04-01T16:41:00;99633.59;;;7.13;100.00
72560;BME280;62987;52.382;9.752;2023-04-01T16:43:35;99649.72;;;7.07;100.00
72560;BME280;62987;52.382;9.752;2023-04-01T16:46:20;99618.91;;;6.88;100.00
72560;BME280;62987;52.382;9.752;2023-04-01T16:49:04;99651.19;;;7.14;100.00
72560;BME280;62987;52.382;9.752;2023-04-01T16:51:46;99659.56;;;6.85;100.00
72560;BME280;62987;52.382;9.752;2023-04-01T16:54:25;99662.06;;;6.68;100.00
72560;BME280;62987;52.382;9.752;2023-04-01T16:57:02;99673.28;;;6.53;100.00
72560;BME280;62987;52.382;9.752;2023-04-01T16:59:36;99679.56;;;6.50;100.00
72560;BME280;62987;52.382;9.752;2023-04-01T17:02:11;99686.44;;;6.54;100.00
72560;BME280;62987;52.382;9.752;2023-04-01T17:04:44;99691.78;;;6.53;100.00
72560;BME280;62987;52.382;9.752;2023-04-01T17:07:21;99691.84;;;6.51;100.00
72560;BME280;62987;52.382;9.752;2023-04-01T17:10:03;99686.69;;;6.48;100.00
72560;BME280;62987;52.382;9.752;2023-04-01T17:12:37;99701.13;;;6.39;100.00
72560;BME280;62987;52.382;9.752;2023-04-01T17:15:15;99715.47;;;6.34;100.00
72560;BME280;62987;52.382;9.752;2023-04-01T17:17:56;99711.19;;;6.30;100.00
72560;BME280;62987;52.382;9.752;2023-04-01T17:20:32;99709.66;;;6.24;100.00
72560;BME280;62987;52.382;9.752;2023-04-01T17:23:16;99718.75;;;6.17;100.00
72560;BME280;62987;52.382;9.752;2023-04-01T17:26:05;99739.16;;;6.14;100.00
72560;BME280;62987;52.382;9.752;2023-04-01T17:28:43;99748.84;;;6.13;100.00
72560;BME280;62987;52.382;9.752;2023-04-01T17:31:20;99746.50;;;6.06;100.00
72560;BME280;62987;52.382;9.752;2023-04-01T17:34:02;99746.50;;;6.06;100.00
72560;BME280;62987;52.382;9.752;2023-04-01T17:36:42;99763.50;;;5.98;100.00
72560;BME280;62987;52.382;9.752;2023-04-01T17:39:39;99770.84;;;5.90;100.00
72560;BME280;62987;52.382;9.752;2023-04-01T17:42:14;99787.00;;;5.81;100.00
72560;BME280;62987;52.382;9.752;2023-04-01T17:44:53;99786.00;;;5.84;100.00
72560;BME280;62987;52.382;9.752;2023-04-01T17:47:39;99791.47;;;5.79;100.00
72560;BME280;62987;52.382;9.752;2023-04-01T17:50:21;99797.09;;;5.70;100.00
72560;BME280;62987;52.382;9.752;2023-04-01T17:52:59;99812.22;;;5.65;100.00
72560;BME280;62987;52.382;9.752;2023-04-01T17:55:46;99815.97;;;5.58;100.00
72560;BME280;62987;52.382;9.752;2023-04-01T17:58:20;99806.75;;;5.46;100.00
72560;BME280;62987;52.382;9.752;2023-04-01T18:01:09;99828.53;;;5.51;100.00
72560;BME280;62987;52.382;9.752;2023-04-01T18:03:56;99832.84;;;5.54;100.00
72560;BME280;62987;52.382;9.752;2023-04-01T18:06:36;99837.69;;;5.41;100.00
72560;BME280;62987;52.382;9.752;2023-04-01T18:09:21;99846.50;;;5.40;100.00
72560;BME280;62987;52.382;9.752;2023-04-01T18:11:58;99858.03;;;5.38;100.00
72560;BME280;62987;52.382;9.752;2023-04-01T18:17:42;99860.06;;;5.30;100.00
72560;BME280;62987;52.382;9.752;2023-04-01T18:20:26;99862.75;;;5.28;100.00
72560;BME280;62987;52.382;9.752;2023-04-01T18:22:59;99869.84;;;5.26;100.00
72560;BME280;62987;52.382;9.752;2023-04-01T18:25:33;99878.56;;;5.28;100.00
72560;BME280;62987;52.382;9.752;2023-04-01T18:28:18;99890.91;;;5.28;100.00
72560;BME280;62987;52.382;9.752;2023-04-01T18:30:54;99895.41;;;5.24;100.00
72560;BME280;62987;52.382;9.752;2023-04-01T18:33:29;99911.53;;;5.15;100.00
72560;BME280;62987;52.382;9.752;2023-04-01T18:36:09;99910.56;;;5.17;100.00
72560;BME280;62987;52.382;9.752;2023-04-01T18:38:49;99911.78;;;5.07;100.00
72560;BME280;62987;52.382;9.752;2023-04-01T18:41:22;99924.94;;;5.07;100.00
72560;BME280;62987;52.382;9.752;2023-04-01T18:44:03;99918.03;;;5.05;100.00
72560;BME280;62987;52.382;9.752;2023-04-01T18:46:45;99928.56;;;5.05;100.00
72560;BME280;62987;52.382;9.752;2023-04-01T18:49:21;99946.19;;;5.03;100.00
72560;BME280;62987;52.382;9.752;2023-04-01T18:51:51;99947.13;;;5.00;100.00
72560;BME280;62987;52.382;9.752;2023-04-01T18:54:27;99953.00;;;5.10;100.00
72560;BME280;62987;52.382;9.752;2023-04-01T18:57:02;99967.94;;;5.09;100.00
72560;BME280;62987;52.382;9.752;2023-04-01T18:59:36;99963.53;;;5.10;100.00
72560;BME280;62987;52.382;9.752;2023-04-01T19:02:17;99969.94;;;5.01;100.00
72560;BME280;62987;52.382;9.752;2023-04-01T19:04:53;99974.38;;;4.99;100.00
72560;BME280;62987;52.382;9.752;2023-04-01T19:07:45;99979.34;;;5.10;100.00
72560;BME280;62987;52.382;9.752;2023-04-01T19:10:22;99989.41;;;4.97;100.00
72560;BME280;62987;52.382;9.752;2023-04-01T19:13:11;99988.81;;;4.88;100.00
